createdAt,value
2019-05-30T00:00:05.753Z,100849.98
2019-05-30T00:02:39.151Z,100847.48
2019-05-30T00:05:25.791Z,100856.47
2019-05-30T00:08:11.841Z,100857.37
2019-05-30T00:10:58.534Z,100854.11
2019-05-30T00:13:44.771Z,100851.73
2019-05-30T00:16:30.745Z,100862.17
2019-05-30T00:19:16.895Z,100861.22
2019-05-30T00:22:03.946Z,100857.46
2019-05-30T00:24:51.220Z,100857.59
2019-05-30T00:27:37.512Z,100852.78
2019-05-30T00:30:26.382Z,100854.39
2019-05-30T00:33:12.655Z,100848.39
2019-05-30T00:35:59.946Z,100861.62
2019-05-30T00:38:46.210Z,100872.05
2019-05-30T00:41:32.461Z,100853.19
2019-05-30T00:44:18.476Z,100853.92
2019-05-30T00:47:04.746Z,100859.00
2019-05-30T00:49:51.250Z,100863.73
2019-05-30T00:52:37.676Z,100860.17
2019-05-30T00:55:23.640Z,100860.37
2019-05-30T00:58:09.792Z,100864.41
2019-05-30T01:00:59.048Z,100856.03
2019-05-30T01:03:45.350Z,100845.09
2019-05-30T01:06:31.481Z,100851.63
2019-05-30T01:09:17.736Z,100849.65
2019-05-30T01:12:05.300Z,100853.78
2019-05-30T01:14:51.714Z,100846.23
2019-05-30T01:17:39.179Z,100847.06
2019-05-30T01:20:25.593Z,100852.12
2019-05-30T01:23:11.601Z,100849.58
2019-05-30T01:25:59.218Z,100854.59
2019-05-30T01:28:45.776Z,100851.34
2019-05-30T01:31:31.860Z,100863.06
2019-05-30T01:34:18.008Z,100854.86
2019-05-30T01:37:04.176Z,100856.80
2019-05-30T01:39:50.261Z,100849.97
2019-05-30T01:42:36.457Z,100853.70
2019-05-30T01:45:22.400Z,100853.03
2019-05-30T01:48:08.674Z,100852.16
2019-05-30T01:50:55.260Z,100849.45
2019-05-30T01:53:41.480Z,100842.35
2019-05-30T01:56:27.716Z,100831.52
2019-05-30T01:59:13.995Z,100837.41
2019-05-30T02:02:00.916Z,100827.94
2019-05-30T02:04:47.476Z,100833.03
2019-05-30T02:07:33.896Z,100826.02
2019-05-30T02:10:19.888Z,100827.94
2019-05-30T02:13:06.007Z,100833.61
2019-05-30T02:15:52.216Z,100825.95
2019-05-30T02:18:38.357Z,100826.90
2019-05-30T02:21:24.632Z,100836.98
2019-05-30T02:24:12.155Z,100845.01
2019-05-30T02:27:00.006Z,100826.07
2019-05-30T02:29:46.665Z,100848.03
2019-05-30T02:32:32.826Z,100843.73
2019-05-30T02:35:18.955Z,100838.98
2019-05-30T02:38:05.422Z,100838.38
2019-05-30T02:40:53.146Z,100829.67
2019-05-30T02:43:39.374Z,100837.25
2019-05-30T02:46:25.555Z,100839.74
2019-05-30T02:49:13.846Z,100834.34
2019-05-30T02:51:59.886Z,100833.29
2019-05-30T02:54:46.127Z,100838.30
2019-05-30T02:57:32.442Z,100840.45
2019-05-30T03:00:24.868Z,100839.48
2019-05-30T03:03:13.914Z,100846.80
2019-05-30T03:05:58.766Z,100841.40
2019-05-30T03:08:45.237Z,100844.64
2019-05-30T03:11:31.088Z,100839.48
2019-05-30T03:14:19.710Z,100837.20
2019-05-30T03:17:07.826Z,100842.23
2019-05-30T03:19:53.928Z,100843.28
2019-05-30T03:22:40.082Z,100846.19
2019-05-30T03:25:26.280Z,100843.66
2019-05-30T03:28:13.652Z,100848.79
2019-05-30T03:30:59.837Z,100850.56
2019-05-30T03:33:46.177Z,100844.61
2019-05-30T03:36:32.335Z,100833.45
2019-05-30T03:39:18.312Z,100841.94
2019-05-30T03:42:06.762Z,100841.28
2019-05-30T03:44:52.681Z,100842.32
2019-05-30T03:47:41.110Z,100850.69
2019-05-30T03:50:29.330Z,100854.17
2019-05-30T03:53:16.345Z,100855.11
2019-05-30T03:56:09.032Z,100857.58
2019-05-30T03:59:14.817Z,100857.02
2019-05-30T04:02:19.843Z,100853.72
2019-05-30T04:05:07.537Z,100856.48
2019-05-30T04:07:55.666Z,100856.58
2019-05-30T04:10:43.098Z,100855.42
2019-05-30T04:13:43.761Z,100853.98
2019-05-30T04:16:30.163Z,100853.61
2019-05-30T04:19:17.735Z,100853.61
2019-05-30T04:22:04.371Z,100861.81
2019-05-30T04:24:50.716Z,100857.41
2019-05-30T04:27:36.898Z,100860.32
2019-05-30T04:30:23.085Z,100858.00
2019-05-30T04:33:22.528Z,100864.19
2019-05-30T04:35:57.551Z,100860.05
2019-05-30T04:38:43.717Z,100855.20
2019-05-30T04:41:30.003Z,100857.58
2019-05-30T04:44:17.929Z,100863.41
2019-05-30T04:47:04.176Z,100868.33
2019-05-30T04:49:50.667Z,100865.07
2019-05-30T04:52:36.600Z,100856.53
2019-05-30T04:55:23.225Z,100866.27
2019-05-30T04:58:11.004Z,100868.86
2019-05-30T05:00:57.821Z,100866.66
2019-05-30T05:03:46.525Z,100855.72
2019-05-30T05:06:31.987Z,100865.41
2019-05-30T05:09:20.120Z,100871.91
2019-05-30T05:12:06.516Z,100859.22
2019-05-30T05:14:52.621Z,100861.43
2019-05-30T05:17:39.091Z,100861.51
2019-05-30T05:20:26.616Z,100864.36
2019-05-30T05:23:13.060Z,100867.00
2019-05-30T05:26:01.316Z,100856.22
2019-05-30T05:28:47.796Z,100868.14
2019-05-30T05:31:33.806Z,100871.66
2019-05-30T05:34:21.351Z,100875.13
2019-05-30T05:37:07.445Z,100876.05
2019-05-30T05:39:53.720Z,100880.07
2019-05-30T05:42:39.990Z,100880.09
2019-05-30T05:45:26.155Z,100883.36
2019-05-30T05:48:12.310Z,100882.25
2019-05-30T05:50:58.840Z,100880.86
2019-05-30T05:53:44.975Z,100885.59
2019-05-30T05:56:31.174Z,100882.93
2019-05-30T05:59:18.851Z,100883.95
2019-05-30T06:02:07.322Z,100880.63
2019-05-30T06:04:53.508Z,100883.47
2019-05-30T06:07:39.670Z,100881.77
2019-05-30T06:10:25.872Z,100885.88
2019-05-30T06:13:11.828Z,100878.17
2019-05-30T06:15:58.031Z,100884.71
2019-05-30T06:18:44.035Z,100893.77
2019-05-30T06:21:30.331Z,100889.38
2019-05-30T06:24:17.645Z,100897.66
2019-05-30T06:27:04.001Z,100882.71
2019-05-30T06:29:50.353Z,100887.73
2019-05-30T06:32:36.281Z,100879.50
2019-05-30T06:35:23.001Z,100880.87
2019-05-30T06:38:09.380Z,100878.11
2019-05-30T06:40:55.250Z,100876.12
2019-05-30T06:43:41.291Z,100884.38
2019-05-30T06:46:28.394Z,100884.94
2019-05-30T06:49:15.066Z,100885.25
2019-05-30T06:52:01.279Z,100880.80
2019-05-30T06:54:47.477Z,100881.91
2019-05-30T06:57:33.481Z,100875.16
2019-05-30T07:00:21.732Z,100875.51
2019-05-30T07:03:07.995Z,100883.63
2019-05-30T07:05:54.470Z,100876.27
2019-05-30T07:08:41.006Z,100878.88
2019-05-30T07:11:27.256Z,100880.14
2019-05-30T07:14:13.330Z,100870.00
2019-05-30T07:16:59.381Z,100891.20
2019-05-30T07:19:45.545Z,100894.87
2019-05-30T07:22:31.910Z,100892.22
2019-05-30T07:25:18.412Z,100901.10
2019-05-30T07:28:04.911Z,100892.42
2019-05-30T07:30:50.975Z,100902.67
2019-05-30T07:33:37.147Z,100903.17
2019-05-30T07:36:24.076Z,100897.47
2019-05-30T07:39:10.471Z,100902.67
2019-05-30T07:42:06.143Z,100904.20
2019-05-30T07:44:45.046Z,100913.81
2019-05-30T07:47:32.155Z,100916.05
2019-05-30T07:50:19.442Z,100919.00
2019-05-30T07:53:05.683Z,100914.31
2019-05-30T07:55:51.869Z,100917.54
2019-05-30T07:58:37.980Z,100913.87
2019-05-30T08:01:24.095Z,100921.05
2019-05-30T08:04:10.291Z,100917.05
2019-05-30T08:06:56.535Z,100896.42
2019-05-30T08:09:42.717Z,100912.92
2019-05-30T08:12:30.078Z,100901.58
2019-05-30T08:15:16.436Z,100904.18
2019-05-30T08:18:02.722Z,100901.45
2019-05-30T08:20:48.875Z,100907.78
2019-05-30T08:23:36.217Z,100914.54
2019-05-30T08:26:22.751Z,100907.96
2019-05-30T08:29:08.660Z,100913.25
2019-05-30T08:31:54.916Z,100918.35
2019-05-30T08:34:41.065Z,100920.62
2019-05-30T08:37:27.161Z,100912.50
2019-05-30T08:40:13.947Z,100915.30
2019-05-30T08:43:00.105Z,100906.10
2019-05-30T08:45:46.412Z,100929.09
2019-05-30T08:48:33.288Z,100935.89
2019-05-30T08:51:20.910Z,100940.04
2019-05-30T08:54:07.087Z,100935.09
2019-05-30T08:56:53.316Z,100933.97
2019-05-30T08:59:40.643Z,100936.77
2019-05-30T09:02:27.054Z,100926.61
2019-05-30T09:05:14.643Z,100923.56
2019-05-30T09:08:00.757Z,100913.39
2019-05-30T09:10:46.798Z,100918.57
2019-05-30T09:13:33.295Z,100919.49
2019-05-30T09:16:19.096Z,100917.80
2019-05-30T09:19:05.268Z,100918.70
2019-05-30T09:21:52.337Z,100905.42
2019-05-30T09:24:39.153Z,100897.81
2019-05-30T09:27:26.661Z,100890.53
2019-05-30T09:30:13.351Z,100896.03
2019-05-30T09:32:59.150Z,100883.20
2019-05-30T09:35:45.246Z,100885.89
2019-05-30T09:38:31.432Z,100887.08
2019-05-30T09:41:17.550Z,100888.37
2019-05-30T09:44:04.880Z,100884.23
2019-05-30T09:46:50.676Z,100882.20
2019-05-30T09:49:36.910Z,100886.75
2019-05-30T09:52:23.101Z,100891.50
2019-05-30T09:55:09.631Z,100862.72
2019-05-30T09:57:55.751Z,100895.22
2019-05-30T10:00:43.469Z,100895.22
2019-05-30T10:03:30.302Z,100896.07
2019-05-30T10:06:28.444Z,100894.08
2019-05-30T10:09:07.173Z,100894.23
2019-05-30T10:11:53.550Z,100899.23
2019-05-30T10:14:39.886Z,100900.69
2019-05-30T10:17:26.057Z,100911.53
2019-05-30T10:20:13.747Z,100897.23
2019-05-30T10:23:03.312Z,100917.70
2019-05-30T10:25:48.406Z,100905.23
2019-05-30T10:28:35.616Z,100907.74
2019-05-30T10:31:21.796Z,100915.41
2019-05-30T10:34:07.786Z,100913.59
2019-05-30T10:36:54.239Z,100916.35
2019-05-30T10:39:40.379Z,100916.32
2019-05-30T10:42:26.663Z,100921.73
2019-05-30T10:45:13.520Z,100923.41
2019-05-30T10:47:59.960Z,100932.08
2019-05-30T10:50:48.268Z,100928.58
2019-05-30T10:53:37.482Z,100927.86
2019-05-30T10:56:22.719Z,100916.80
2019-05-30T10:59:08.741Z,100917.73
2019-05-30T11:01:54.919Z,100928.81
2019-05-30T11:04:41.049Z,100935.16
2019-05-30T11:08:03.856Z,100936.72
2019-05-30T11:10:43.622Z,100936.36
2019-05-30T11:13:29.667Z,100918.65
2019-05-30T11:16:16.006Z,100926.28
2019-05-30T11:19:07.228Z,100935.14
2019-05-30T11:21:50.260Z,100939.06
2019-05-30T11:24:36.460Z,100940.09
2019-05-30T11:27:22.780Z,100936.91
2019-05-30T11:30:09.420Z,100944.89
2019-05-30T11:32:55.380Z,100935.86
2019-05-30T11:35:41.480Z,100947.91
2019-05-30T11:38:27.919Z,100948.39
2019-05-30T11:41:16.399Z,100951.23
2019-05-30T11:44:04.200Z,100951.90
2019-05-30T11:46:51.820Z,100940.39
2019-05-30T11:49:38.889Z,100950.73
2019-05-30T11:52:25.361Z,100950.58
2019-05-30T11:55:12.380Z,100948.75
2019-05-30T11:57:58.523Z,100945.23
2019-05-30T12:00:45.321Z,100949.54
2019-05-30T12:03:31.597Z,100944.16
2019-05-30T12:06:18.040Z,100950.33
2019-05-30T12:09:06.809Z,100952.95
2019-05-30T12:11:53.181Z,100956.45
2019-05-30T12:14:39.621Z,100951.30
2019-05-30T12:17:25.820Z,100955.65
2019-05-30T12:20:12.360Z,100956.86
2019-05-30T12:22:58.480Z,100960.86
2019-05-30T12:25:44.879Z,100968.01
2019-05-30T12:28:30.800Z,100966.19
2019-05-30T12:31:16.959Z,100970.35
2019-05-30T12:34:03.679Z,100977.20
2019-05-30T12:36:49.840Z,100976.08
2019-05-30T12:39:36.341Z,100972.70
2019-05-30T12:42:22.439Z,100976.23
2019-05-30T12:45:09.302Z,100976.20
2019-05-30T12:47:55.259Z,100974.23
2019-05-30T12:50:41.542Z,100985.89
2019-05-30T12:53:27.665Z,100982.23
2019-05-30T12:56:13.947Z,100989.58
2019-05-30T12:59:01.098Z,100990.91
2019-05-30T13:01:47.653Z,100995.24
2019-05-30T13:04:33.977Z,100999.07
2019-05-30T13:07:19.934Z,101002.55
2019-05-30T13:10:07.914Z,100994.22
2019-05-30T13:12:53.792Z,100998.91
2019-05-30T13:15:40.027Z,101004.17
2019-05-30T13:18:26.147Z,100998.58
2019-05-30T13:21:12.402Z,100999.58
2019-05-30T13:23:59.578Z,100991.58
2019-05-30T13:26:45.548Z,101003.23
2019-05-30T13:29:32.013Z,100999.25
2019-05-30T13:32:17.872Z,100992.55
2019-05-30T13:35:05.423Z,100991.06
2019-05-30T13:37:51.847Z,101001.75
2019-05-30T13:40:38.117Z,100995.56
2019-05-30T13:43:27.748Z,101004.39
2019-05-30T13:46:12.917Z,101009.75
2019-05-30T13:49:00.825Z,101006.58
2019-05-30T13:51:47.577Z,101001.41
2019-05-30T13:54:33.547Z,101005.42
2019-05-30T13:57:19.577Z,101007.92
2019-05-30T14:00:08.138Z,100995.56
2019-05-30T14:02:54.589Z,100996.90
2019-05-30T14:05:41.018Z,100987.56
2019-05-30T14:08:40.780Z,100991.23
2019-05-30T14:11:16.307Z,100989.90
2019-05-30T14:14:02.800Z,101000.58
2019-05-30T14:16:49.126Z,101002.38
2019-05-30T14:19:36.345Z,101001.70
2019-05-30T14:22:22.643Z,101012.91
2019-05-30T14:25:09.775Z,101013.91
2019-05-30T14:27:55.732Z,101014.24
2019-05-30T14:30:43.042Z,101015.06
2019-05-30T14:33:29.262Z,101011.23
2019-05-30T14:36:15.441Z,101004.91
2019-05-30T14:39:02.600Z,101013.27
2019-05-30T14:41:49.147Z,101001.92
2019-05-30T14:44:35.317Z,101007.59
2019-05-30T14:47:21.788Z,101009.91
2019-05-30T14:50:08.993Z,101014.41
2019-05-30T14:52:55.223Z,101018.08
2019-05-30T14:55:41.532Z,101008.90
2019-05-30T14:58:27.675Z,101007.91
2019-05-30T15:01:13.962Z,101014.58
2019-05-30T15:03:59.952Z,101014.25
2019-05-30T15:06:46.131Z,101008.58
2019-05-30T15:09:32.358Z,101005.59
2019-05-30T15:12:18.487Z,101003.92
2019-05-30T15:15:07.333Z,101006.58
2019-05-30T15:17:53.085Z,101000.75
2019-05-30T15:20:39.053Z,101009.23
2019-05-30T15:23:25.208Z,101006.76
2019-05-30T15:26:12.124Z,101010.91
2019-05-30T15:28:58.253Z,101012.91
2019-05-30T15:31:44.442Z,101005.90
2019-05-30T15:34:30.912Z,101009.42
2019-05-30T15:37:17.107Z,101017.58
2019-05-30T15:40:03.242Z,101025.74
2019-05-30T15:42:53.060Z,101017.72
2019-05-30T15:45:38.024Z,101010.74
2019-05-30T15:48:24.142Z,101005.26
2019-05-30T15:51:10.611Z,101003.57
2019-05-30T15:53:56.698Z,101007.91
2019-05-30T15:56:42.987Z,101014.91
2019-05-30T15:59:29.313Z,101021.26
2019-05-30T16:02:16.114Z,101023.74
2019-05-30T16:05:04.497Z,101012.25
2019-05-30T16:07:50.913Z,101013.57
2019-05-30T16:10:37.208Z,101007.08
2019-05-30T16:13:23.432Z,101005.39
2019-05-30T16:16:09.808Z,101008.07
2019-05-30T16:18:56.014Z,101006.41
2019-05-30T16:21:42.113Z,101009.24
2019-05-30T16:24:29.477Z,101008.47
2019-05-30T16:27:15.855Z,101008.06
2019-05-30T16:30:02.813Z,101003.00
2019-05-30T16:32:49.767Z,101012.22
2019-05-30T16:35:35.708Z,101007.02
2019-05-30T16:38:22.248Z,101009.05
2019-05-30T16:41:08.167Z,100998.16
2019-05-30T16:43:54.143Z,101004.48
2019-05-30T16:46:40.374Z,101003.15
2019-05-30T16:49:26.946Z,100996.50
2019-05-30T16:52:13.061Z,100998.38
2019-05-30T16:54:59.342Z,100998.48
2019-05-30T16:57:45.448Z,100992.65
2019-05-30T17:00:31.549Z,101002.05
2019-05-30T17:03:17.844Z,100999.87
2019-05-30T17:06:04.157Z,100996.55
2019-05-30T17:08:50.138Z,100990.70
2019-05-30T17:11:36.238Z,100983.91
2019-05-30T17:14:22.462Z,100980.23
2019-05-30T17:17:08.654Z,100976.56
2019-05-30T17:19:54.738Z,100977.36
2019-05-30T17:22:40.912Z,100987.22
2019-05-30T17:25:27.259Z,100990.20
2019-05-30T17:28:14.993Z,100988.28
2019-05-30T17:31:01.297Z,100993.41
2019-05-30T17:33:47.662Z,100993.94
2019-05-30T17:36:33.802Z,100997.55
2019-05-30T17:39:20.418Z,100996.25
2019-05-30T17:42:06.645Z,100988.89
2019-05-30T17:44:52.772Z,101003.90
2019-05-30T17:47:38.893Z,101003.23
2019-05-30T17:50:25.814Z,101006.22
2019-05-30T17:53:12.337Z,101008.20
2019-05-30T17:55:59.474Z,101016.89
2019-05-30T17:58:46.293Z,101018.06
2019-05-30T18:01:32.167Z,101016.55
2019-05-30T18:04:18.348Z,101007.25
2019-05-30T18:07:04.797Z,101005.75
2019-05-30T18:09:50.817Z,101011.56
2019-05-30T18:12:37.033Z,101008.39
2019-05-30T18:15:26.266Z,100998.22
2019-05-30T18:18:11.502Z,101000.48
2019-05-30T18:20:57.653Z,101009.20
2019-05-30T18:23:44.840Z,101003.66
2019-05-30T18:26:31.861Z,100994.16
2019-05-30T18:29:19.055Z,101003.45
2019-05-30T18:32:05.512Z,101009.60
2019-05-30T18:34:51.599Z,101015.91
2019-05-30T18:37:38.090Z,101019.22
2019-05-30T18:40:33.268Z,101024.08
2019-05-30T18:43:19.598Z,101023.05
2019-05-30T18:46:05.774Z,101025.52
2019-05-30T18:48:51.853Z,101017.47
2019-05-30T18:51:38.062Z,101022.61
2019-05-30T18:54:24.419Z,101026.14
2019-05-30T18:57:11.083Z,101027.58
2019-05-30T18:59:57.205Z,101029.09
2019-05-30T19:02:43.178Z,101030.37
2019-05-30T19:05:30.413Z,101027.02
2019-05-30T19:08:17.033Z,101026.70
2019-05-30T19:11:03.377Z,101031.38
2019-05-30T19:13:50.137Z,101030.41
2019-05-30T19:16:37.085Z,101016.52
2019-05-30T19:19:23.225Z,101005.23
2019-05-30T19:22:09.408Z,101023.68
2019-05-30T19:24:56.463Z,101015.52
2019-05-30T19:27:42.758Z,101018.45
2019-05-30T19:30:29.107Z,101024.63
2019-05-30T19:33:15.527Z,101029.58
2019-05-30T19:36:01.774Z,101035.59
2019-05-30T19:38:47.817Z,101037.52
2019-05-30T19:41:45.932Z,101038.84
2019-05-30T19:44:22.232Z,101041.48
2019-05-30T19:47:08.358Z,101043.13
2019-05-30T19:49:54.593Z,101049.41
2019-05-30T19:52:41.208Z,101045.48
2019-05-30T19:55:27.440Z,101057.50
2019-05-30T19:58:14.514Z,101056.80
2019-05-30T20:01:00.557Z,101045.89
2019-05-30T20:03:47.181Z,101051.02
2019-05-30T20:06:34.591Z,101053.31
2019-05-30T20:09:21.167Z,101058.20
2019-05-30T20:12:08.935Z,101057.07
2019-05-30T20:14:55.563Z,101057.57
2019-05-30T20:17:42.015Z,101056.36
2019-05-30T20:20:28.303Z,101057.87
2019-05-30T20:23:14.402Z,101049.41
2019-05-30T20:26:00.527Z,101052.61
2019-05-30T20:28:46.762Z,101046.94
2019-05-30T20:31:33.317Z,101049.08
2019-05-30T20:34:19.330Z,101051.92
2019-05-30T20:37:05.604Z,101050.09
2019-05-30T20:39:51.622Z,101046.74
2019-05-30T20:42:38.879Z,101047.44
2019-05-30T20:45:25.472Z,101049.95
2019-05-30T20:48:11.473Z,101048.91
2019-05-30T20:50:57.607Z,101053.06
2019-05-30T20:53:43.906Z,101056.69
2019-05-30T20:56:30.037Z,101056.80
2019-05-30T20:59:16.033Z,101055.98
2019-05-30T21:02:02.283Z,101054.13
2019-05-30T21:04:48.478Z,101051.66
2019-05-30T21:07:35.865Z,101058.94
2019-05-30T21:10:22.428Z,101059.44
2019-05-30T21:13:08.412Z,101061.91
2019-05-30T21:15:56.063Z,101063.43
2019-05-30T21:18:45.937Z,101058.55
2019-05-30T21:21:32.214Z,101055.56
2019-05-30T21:24:18.307Z,101059.39
2019-05-30T21:27:04.834Z,101055.45
2019-05-30T21:29:50.684Z,101055.45
2019-05-30T21:32:37.669Z,101053.63
2019-05-30T21:35:24.982Z,101051.48
2019-05-30T21:38:11.013Z,101053.75
2019-05-30T21:40:57.162Z,101056.05
2019-05-30T21:43:44.475Z,101042.42
2019-05-30T21:46:31.525Z,101031.36
2019-05-30T21:49:17.812Z,101039.03
2019-05-30T21:52:04.138Z,101041.73
2019-05-30T21:54:50.307Z,101041.06
2019-05-30T21:57:39.767Z,101045.36
2019-05-30T22:01:00.456Z,101048.70
2019-05-30T22:03:47.072Z,101048.14
2019-05-30T22:06:33.232Z,101052.95
2019-05-30T22:09:19.257Z,101049.08
2019-05-30T22:12:05.562Z,101052.70
2019-05-30T22:14:51.979Z,101049.97
2019-05-30T22:17:38.392Z,101049.64
2019-05-30T22:20:24.659Z,101057.43
2019-05-30T22:23:11.178Z,101051.61
2019-05-30T22:25:57.540Z,101052.25
2019-05-30T22:28:44.367Z,101046.63
2019-05-30T22:31:30.892Z,101052.30
2019-05-30T22:34:18.027Z,101046.81
2019-05-30T22:37:04.214Z,101050.30
2019-05-30T22:39:51.014Z,101054.67
2019-05-30T22:42:37.352Z,101054.16
2019-05-30T22:45:23.380Z,101052.69
2019-05-30T22:48:09.513Z,101052.33
2019-05-30T22:50:56.940Z,101047.70
2019-05-30T22:53:43.344Z,101051.16
2019-05-30T22:56:29.367Z,101046.36
2019-05-30T22:59:15.798Z,101051.69
2019-05-30T23:04:42.892Z,101052.75
2019-05-30T23:07:29.970Z,101047.05
2019-05-30T23:10:16.854Z,101058.09
2019-05-30T23:13:03.330Z,101056.43
2019-05-30T23:15:50.084Z,101068.73
2019-05-30T23:18:36.547Z,101063.53
2019-05-30T23:21:22.814Z,101069.97
2019-05-30T23:24:09.092Z,101063.02
2019-05-30T23:26:55.878Z,101066.33
2019-05-30T23:29:42.272Z,101057.77
2019-05-30T23:32:28.736Z,101066.26
2019-05-30T23:35:15.242Z,101064.93
2019-05-30T23:38:01.769Z,101064.98
2019-05-30T23:40:48.935Z,101063.59
2019-05-30T23:43:36.685Z,101065.83
2019-05-30T23:46:23.262Z,101065.23
